Time;durP1;ratioP1;P1;durP2;ratioP2;P2;SDS_P1;SDS_P2;PMS_P1;PMS_P2;Temp;Humidity;BMP_temperature;BMP_pressure;BME280_temperature;BME280_humidity;BME280_pressure;Samples;Min_cycle;Max_cycle;Signal;HPM_P1;HPM_P2
2022/07/23 00:01:23;;;;;;;6.67;4.43;;;26.80;79.80;;;;;;5097147;28;20820;-93
2022/07/23 00:03:54;;;;;;;8.50;4.40;;;26.80;80.00;;;;;;5096822;28;20409;-90
2022/07/23 00:06:19;;;;;;;6.93;4.73;;;26.80;80.50;;;;;;5096454;28;20985;-93
2022/07/23 00:08:45;;;;;;;8.23;4.73;;;26.70;80.60;;;;;;5096612;28;20464;-92
2022/07/23 00:11:11;;;;;;;10.57;4.27;;;26.70;81.00;;;;;;5096024;28;20192;-93
2022/07/23 00:13:37;;;;;;;15.13;4.60;;;26.60;81.10;;;;;;5095611;28;20256;-91
2022/07/23 00:16:03;;;;;;;7.73;4.83;;;26.60;81.20;;;;;;5096726;28;20185;-92
2022/07/23 00:18:29;;;;;;;13.40;4.97;;;26.60;81.50;;;;;;5097113;28;20975;-93
2022/07/23 00:20:55;;;;;;;11.23;5.47;;;26.60;81.80;;;;;;5095482;28;20472;-92
2022/07/23 00:23:21;;;;;;;9.97;4.50;;;26.50;81.70;;;;;;5094224;28;20432;-92
2022/07/23 00:25:46;;;;;;;6.30;4.97;;;26.50;80.90;;;;;;5095662;28;20191;-91
2022/07/23 00:28:12;;;;;;;5.93;4.50;;;26.40;80.80;;;;;;5096460;28;20429;-93
2022/07/23 00:30:38;;;;;;;13.43;4.60;;;26.30;80.10;;;;;;5099711;28;20185;-92
2022/07/23 00:33:06;;;;;;;14.13;5.23;;;26.30;79.40;;;;;;5095219;28;20192;-92
2022/07/23 00:35:35;;;;;;;6.10;4.97;;;26.20;78.90;;;;;;5095438;28;20206;-93
2022/07/23 00:38:02;;;;;;;7.03;5.10;;;26.20;78.30;;;;;;5095237;28;20436;-92
2022/07/23 00:40:28;;;;;;;12.13;4.80;;;26.10;77.80;;;;;;5097084;28;20824;-93
2022/07/23 00:42:54;;;;;;;10.23;4.93;;;26.10;77.40;;;;;;5095942;28;20437;-91
2022/07/23 00:45:20;;;;;;;9.13;4.47;;;26.10;78.00;;;;;;5094929;28;20520;-93
2022/07/23 00:47:46;;;;;;;9.70;5.17;;;26.10;77.00;;;;;;5097664;28;20192;-93
2022/07/23 00:50:13;;;;;;;6.23;4.33;;;26.10;77.10;;;;;;5094929;28;20412;-92
2022/07/23 00:52:40;;;;;;;5.80;4.70;;;26.10;77.20;;;;;;5094841;28;20822;-92
2022/07/23 00:55:07;;;;;;;7.27;4.97;;;26.10;77.40;;;;;;5096082;28;20431;-92
2022/07/23 00:57:33;;;;;;;5.97;4.53;;;26.10;77.30;;;;;;5095833;28;20993;-93
2022/07/23 00:59:59;;;;;;;8.77;4.73;;;26.10;77.20;;;;;;5095559;28;20503;-90
2022/07/23 01:02:26;;;;;;;5.37;4.10;;;26.10;77.10;;;;;;5095570;28;20490;-91
2022/07/23 01:04:52;;;;;;;7.43;5.27;;;26.00;77.20;;;;;;5094741;28;20655;-91
2022/07/23 01:07:19;;;;;;;6.47;5.23;;;26.10;77.60;;;;;;5094711;28;20500;-92
2022/07/23 01:09:45;;;;;;;14.60;4.37;;;26.00;78.70;;;;;;5094736;28;20421;-92
2022/07/23 01:12:11;;;;;;;9.57;4.33;;;26.00;78.70;;;;;;5098950;28;20446;-92
2022/07/23 01:14:37;;;;;;;7.90;4.50;;;26.00;79.20;;;;;;5102691;28;20409;-91
2022/07/23 01:17:03;;;;;;;7.90;5.10;;;26.00;79.50;;;;;;5096371;28;20441;-92
2022/07/23 01:19:29;;;;;;;6.80;4.83;;;26.00;79.50;;;;;;5094560;28;20181;-92
2022/07/23 01:21:57;;;;;;;7.83;4.53;;;25.90;79.50;;;;;;5094570;28;20739;-93
2022/07/23 01:24:24;;;;;;;5.10;4.60;;;25.90;79.40;;;;;;5094367;28;20405;-92
2022/07/23 01:26:50;;;;;;;10.80;4.60;;;25.90;80.00;;;;;;5095732;28;20945;-93
2022/07/23 01:29:16;;;;;;;5.47;3.53;;;25.90;79.80;;;;;;5094312;28;20424;-91
2022/07/23 01:31:42;;;;;;;7.83;4.80;;;25.80;80.10;;;;;;5094792;28;20996;-92
2022/07/23 01:34:09;;;;;;;7.57;5.03;;;25.80;79.80;;;;;;5093830;28;20413;-91
2022/07/23 01:36:36;;;;;;;10.23;4.87;;;25.80;79.30;;;;;;5094299;28;20447;-92
2022/07/23 01:39:03;;;;;;;7.97;4.70;;;25.80;79.90;;;;;;5095132;28;20792;-91
2022/07/23 01:41:28;;;;;;;9.03;4.40;;;25.70;79.20;;;;;;5095076;28;21062;-92
2022/07/23 01:43:54;;;;;;;5.57;4.97;;;25.70;79.50;;;;;;5094420;28;20436;-91
2022/07/23 01:46:20;;;;;;;7.83;5.03;;;25.70;80.10;;;;;;5096839;28;20204;-92
2022/07/23 01:48:45;;;;;;;11.27;4.70;;;25.60;80.20;;;;;;5095347;28;20183;-91
2022/07/23 01:51:11;;;;;;;6.13;4.40;;;25.60;80.60;;;;;;5097388;28;20207;-91
2022/07/23 01:53:37;;;;;;;9.57;5.60;;;25.60;80.60;;;;;;5096070;28;20224;-91
2022/07/23 01:56:03;;;;;;;7.80;4.33;;;25.50;80.50;;;;;;5094962;28;20666;-93
2022/07/23 01:58:29;;;;;;;6.53;4.23;;;25.50;81.00;;;;;;5093900;28;20175;-90
2022/07/23 02:00:55;;;;;;;8.90;5.30;;;25.50;80.10;;;;;;5094958;28;20468;-93
2022/07/23 02:03:21;;;;;;;8.70;4.60;;;25.40;80.80;;;;;;5095410;28;20715;-92
2022/07/23 02:05:47;;;;;;;8.90;4.57;;;25.40;81.20;;;;;;5094224;28;20516;-91
2022/07/23 02:08:13;;;;;;;4.93;4.40;;;25.40;81.10;;;;;;5093672;28;20479;-92
2022/07/23 02:10:38;;;;;;;9.77;4.80;;;25.40;81.10;;;;;;5095055;28;20618;-92
2022/07/23 02:13:04;;;;;;;8.33;4.40;;;25.30;81.20;;;;;;5093758;28;20206;-93
2022/07/23 02:15:30;;;;;;;7.80;4.80;;;25.30;81.10;;;;;;5093653;28;20237;-91
2022/07/23 02:17:56;;;;;;;11.67;4.90;;;25.30;81.10;;;;;;5096556;28;20436;-90
2022/07/23 02:20:22;;;;;;;5.93;4.33;;;25.30;81.10;;;;;;5095030;28;20172;-92
2022/07/23 02:22:48;;;;;;;8.47;4.67;;;25.30;81.00;;;;;;5093531;28;20251;-92
2022/07/23 02:25:13;;;;;;;9.73;5.30;;;25.20;81.00;;;;;;5095876;28;20401;-92
2022/07/23 02:27:39;;;;;;;5.90;4.47;;;25.30;81.60;;;;;;5094799;28;20848;-91
2022/07/23 02:30:05;;;;;;;6.43;4.80;;;25.20;81.80;;;;;;5093520;28;20200;-91
2022/07/23 02:32:31;;;;;;;9.00;5.23;;;25.20;81.50;;;;;;5095457;28;20248;-92
2022/07/23 02:34:57;;;;;;;7.27;4.13;;;25.20;82.10;;;;;;5094683;28;20492;-92
2022/07/23 02:37:22;;;;;;;6.43;4.47;;;25.20;81.30;;;;;;5093720;28;20202;-91
2022/07/23 02:39:48;;;;;;;6.43;4.70;;;25.10;81.80;;;;;;5093576;28;20182;-91
2022/07/23 02:42:15;;;;;;;8.73;4.63;;;25.10;82.00;;;;;;5093332;28;20232;-92
2022/07/23 02:44:41;;;;;;;8.50;4.90;;;25.00;82.00;;;;;;5093787;28;20183;-91
2022/07/23 02:47:06;;;;;;;10.70;4.97;;;25.00;82.00;;;;;;5096399;28;20439;-93
2022/07/23 02:49:32;;;;;;;6.40;4.90;;;25.00;82.00;;;;;;5097274;28;20432;-90
2022/07/23 02:51:58;;;;;;;9.77;4.70;;;25.00;82.00;;;;;;5097221;28;20199;-92
2022/07/23 02:54:23;;;;;;;10.10;4.87;;;24.90;82.20;;;;;;5098494;28;20529;-91
2022/07/23 02:56:51;;;;;;;5.37;4.60;;;24.90;81.80;;;;;;5098624;28;20626;-93
2022/07/23 02:59:17;;;;;;;8.27;4.70;;;24.80;82.60;;;;;;5100757;28;20249;-92
2022/07/23 03:01:43;;;;;;;6.07;5.47;;;24.70;83.00;;;;;;5103507;28;20479;-92
2022/07/23 03:04:08;;;;;;;5.60;4.70;;;24.70;83.30;;;;;;5098204;28;20531;-92
2022/07/23 03:06:34;;;;;;;8.03;5.00;;;24.60;83.70;;;;;;5096895;28;20474;-92
2022/07/23 03:09:00;;;;;;;5.77;4.53;;;24.50;83.70;;;;;;5096678;28;20235;-92
2022/07/23 03:11:25;;;;;;;7.30;4.80;;;24.50;83.80;;;;;;5096939;28;20271;-91
2022/07/23 03:13:52;;;;;;;7.53;4.43;;;24.50;84.00;;;;;;5097096;28;20234;-91
2022/07/23 03:16:18;;;;;;;7.80;5.87;;;24.40;83.70;;;;;;5100900;28;20481;-93
2022/07/23 03:18:43;;;;;;;6.80;4.33;;;24.40;83.30;;;;;;5096654;28;20182;-89
2022/07/23 03:21:09;;;;;;;7.03;5.07;;;24.40;83.20;;;;;;5097878;28;20637;-93
2022/07/23 03:23:35;;;;;;;7.80;5.00;;;24.40;82.70;;;;;;5096695;28;20184;-90
2022/07/23 03:26:00;;;;;;;7.27;5.30;;;24.40;83.20;;;;;;5096544;28;20179;-93
2022/07/23 03:28:26;;;;;;;9.60;5.70;;;24.40;83.90;;;;;;5098306;28;20194;-92
2022/07/23 03:30:52;;;;;;;11.33;5.80;;;24.30;83.60;;;;;;5096758;28;20174;-91
2022/07/23 03:33:19;;;;;;;11.30;5.90;;;24.30;83.50;;;;;;5097708;28;20196;-92
2022/07/23 03:35:46;;;;;;;11.33;4.70;;;24.30;83.50;;;;;;5096509;28;20181;-92
2022/07/23 03:38:12;;;;;;;8.37;5.33;;;24.30;83.80;;;;;;5098250;28;20427;-92
2022/07/23 03:40:38;;;;;;;10.33;6.40;;;24.20;83.70;;;;;;5096424;28;20419;-92
2022/07/23 03:43:04;;;;;;;12.67;5.90;;;24.20;83.80;;;;;;5097261;28;20446;-91
2022/07/23 03:45:30;;;;;;;8.50;5.90;;;24.20;84.10;;;;;;5099261;28;20620;-91
2022/07/23 03:47:56;;;;;;;17.20;5.53;;;24.20;84.30;;;;;;5097040;28;20210;-92
2022/07/23 03:50:21;;;;;;;8.53;5.70;;;24.20;84.90;;;;;;5096101;28;20422;-93
2022/07/23 03:52:47;;;;;;;17.03;6.00;;;24.20;85.70;;;;;;5095925;28;20211;-91
2022/07/23 03:55:13;;;;;;;16.90;5.93;;;24.20;85.60;;;;;;5097231;28;20169;-93
2022/07/23 03:57:39;;;;;;;12.53;5.07;;;24.20;85.30;;;;;;5095687;28;20450;-92
2022/07/23 04:00:09;;;;;;;11.43;5.40;;;24.20;85.20;;;;;;5100865;28;20174;-92
2022/07/23 04:02:35;;;;;;;11.40;5.23;;;24.20;85.60;;;;;;5095860;28;20311;-91
2022/07/23 04:05:00;;;;;;;8.93;5.77;;;24.20;85.80;;;;;;5095847;28;20471;-92
2022/07/23 04:07:26;;;;;;;10.43;5.07;;;24.30;86.00;;;;;;5096050;28;20464;-92
2022/07/23 04:09:52;;;;;;;9.17;5.73;;;24.30;86.00;;;;;;5095738;28;20226;-91
2022/07/23 04:12:18;;;;;;;9.73;5.57;;;24.30;86.00;;;;;;5096604;28;20298;-91
2022/07/23 04:14:44;;;;;;;14.03;5.40;;;24.30;86.00;;;;;;5096759;28;20189;-92
2022/07/23 04:17:10;;;;;;;9.10;5.80;;;24.30;86.00;;;;;;5095880;28;20193;-93
2022/07/23 04:19:39;;;;;;;10.10;5.37;;;24.40;86.10;;;;;;5096707;28;20450;-90
2022/07/23 04:22:05;;;;;;;8.87;4.37;;;24.40;86.00;;;;;;5096893;28;20474;-92
2022/07/23 04:24:31;;;;;;;12.33;5.17;;;24.40;86.00;;;;;;5095339;28;20411;-92
2022/07/23 04:26:57;;;;;;;15.03;6.00;;;24.50;86.10;;;;;;5095181;28;20539;-91
2022/07/23 04:29:23;;;;;;;8.90;5.47;;;24.50;86.10;;;;;;5097061;28;20224;-91
2022/07/23 04:31:49;;;;;;;13.33;5.37;;;24.60;86.20;;;;;;5099031;28;20454;-92
2022/07/23 04:34:15;;;;;;;9.97;5.43;;;24.60;86.20;;;;;;5095354;28;20663;-93
2022/07/23 04:36:41;;;;;;;8.37;5.53;;;24.70;86.50;;;;;;5096937;28;20762;-91
2022/07/23 04:39:07;;;;;;;14.17;5.10;;;24.70;86.90;;;;;;5095271;28;20197;-91
2022/07/23 04:41:34;;;;;;;6.90;5.17;;;24.70;87.00;;;;;;5095444;28;20479;-92
2022/07/23 04:44:00;;;;;;;11.60;5.70;;;24.80;87.00;;;;;;5097219;28;20193;-91
2022/07/23 04:46:26;;;;;;;9.43;6.10;;;24.90;86.70;;;;;;5094982;28;20456;-92
2022/07/23 04:48:52;;;;;;;11.90;5.90;;;24.90;86.30;;;;;;5095092;28;20408;-91
2022/07/23 04:51:18;;;;;;;11.70;6.40;;;25.00;86.00;;;;;;5095049;28;20514;-92
2022/07/23 04:53:43;;;;;;;16.20;7.03;;;25.00;85.80;;;;;;5096043;28;20285;-91
2022/07/23 04:56:09;;;;;;;8.10;5.40;;;25.10;85.50;;;;;;5095012;28;20187;-93
2022/07/23 04:58:35;;;;;;;10.97;5.77;;;25.20;85.50;;;;;;5096678;28;20184;-91
2022/07/23 05:01:01;;;;;;;10.10;5.47;;;25.20;84.70;;;;;;5094874;28;20203;-93
2022/07/23 05:03:27;;;;;;;10.03;5.97;;;25.30;84.40;;;;;;5100325;28;20427;-91
2022/07/23 05:05:52;;;;;;;10.40;5.13;;;25.30;83.80;;;;;;5099641;28;20201;-92
2022/07/23 05:08:18;;;;;;;6.47;5.50;;;25.40;83.40;;;;;;5094631;28;20696;-93
2022/07/23 05:10:44;;;;;;;9.83;5.63;;;25.50;83.20;;;;;;5093989;28;20289;-92
2022/07/23 05:13:10;;;;;;;13.03;6.17;;;25.60;83.00;;;;;;5094284;28;20464;-92
2022/07/23 05:15:36;;;;;;;17.97;5.80;;;25.60;84.60;;;;;;5095428;28;20187;-92
2022/07/23 05:18:01;;;;;;;9.43;5.60;;;25.70;84.50;;;;;;5094396;28;20203;-93
2022/07/23 05:20:27;;;;;;;13.67;6.40;;;25.80;84.40;;;;;;5094481;28;20180;-92
2022/07/23 05:22:53;;;;;;;8.30;5.00;;;25.80;84.00;;;;;;5094321;28;20254;-92
2022/07/23 05:25:21;;;;;;;7.33;5.27;;;25.90;83.50;;;;;;5094672;28;20547;-93
2022/07/23 05:27:47;;;;;;;11.77;5.47;;;26.00;83.10;;;;;;5095268;28;20219;-92
2022/07/23 05:30:13;;;;;;;8.60;5.00;;;26.00;83.00;;;;;;5095484;28;20405;-92
2022/07/23 05:32:39;;;;;;;11.83;5.30;;;26.20;82.90;;;;;;5094176;28;20750;-92
2022/07/23 05:35:06;;;;;;;14.00;6.17;;;26.20;82.80;;;;;;5095298;28;20409;-91
2022/07/23 05:37:32;;;;;;;8.17;5.50;;;26.30;82.90;;;;;;5094498;28;20961;-92
2022/07/23 05:40:07;;;;;;;9.93;5.97;;;26.40;82.90;;;;;;5096892;28;20401;-92
2022/07/23 05:42:37;;;;;;;8.63;5.40;;;26.40;82.10;;;;;;5095250;28;20227;-92
2022/07/23 05:45:04;;;;;;;10.10;5.67;;;26.50;81.60;;;;;;5097257;28;20417;-93
2022/07/23 05:47:41;;;;;;;9.10;4.80;;;26.60;81.40;;;;;;5094122;28;20451;-93
2022/07/23 05:50:07;;;;;;;10.00;5.37;;;26.60;80.90;;;;;;5100413;28;20388;-92
2022/07/23 05:52:33;;;;;;;13.10;5.60;;;26.70;80.50;;;;;;5093755;28;20516;-93
2022/07/23 05:54:58;;;;;;;8.63;4.80;;;26.80;80.60;;;;;;5094012;28;20199;-91
2022/07/23 05:57:24;;;;;;;15.70;5.40;;;26.90;80.50;;;;;;5094052;28;20200;-91
2022/07/23 05:59:50;;;;;;;7.70;6.67;;;27.00;81.00;;;;;;5095657;28;20168;-92
2022/07/23 06:02:16;;;;;;;7.40;5.20;;;27.00;80.90;;;;;;5096647;28;20220;-92
2022/07/23 06:04:42;;;;;;;11.23;6.90;;;27.10;81.90;;;;;;5093892;28;20177;-91
2022/07/23 06:07:07;;;;;;;10.87;5.37;;;27.20;81.70;;;;;;5094967;28;20436;-91
2022/07/23 06:09:33;;;;;;;10.23;5.40;;;27.20;81.50;;;;;;5094771;28;20169;-91
2022/07/23 06:11:59;;;;;;;14.40;6.23;;;27.40;81.50;;;;;;5095226;28;20208;-93
2022/07/23 06:14:24;;;;;;;7.90;5.17;;;27.40;81.50;;;;;;5093931;28;20195;-92
2022/07/23 06:16:50;;;;;;;10.57;5.50;;;27.50;81.30;;;;;;5094679;28;20202;-91
2022/07/23 06:19:16;;;;;;;7.90;5.00;;;27.60;81.20;;;;;;5094776;28;20535;-91
2022/07/23 06:21:41;;;;;;;8.90;5.43;;;27.60;80.60;;;;;;5096145;28;20253;-92
2022/07/23 06:24:07;;;;;;;7.40;5.53;;;27.70;80.50;;;;;;5097607;28;20181;-91
2022/07/23 06:26:33;;;;;;;11.10;5.27;;;27.80;80.20;;;;;;5099054;28;20196;-93
2022/07/23 06:28:58;;;;;;;9.70;5.77;;;27.90;80.10;;;;;;5097920;28;20268;-91
2022/07/23 06:31:24;;;;;;;10.50;5.20;;;27.90;80.00;;;;;;5097603;28;20257;-92
2022/07/23 06:33:50;;;;;;;10.07;6.90;;;28.00;79.80;;;;;;5102345;28;20208;-92
2022/07/23 06:36:16;;;;;;;12.13;5.70;;;28.10;79.60;;;;;;5097657;28;20536;-93
2022/07/23 06:38:41;;;;;;;6.40;4.90;;;28.20;79.00;;;;;;5097496;28;20643;-92
2022/07/23 06:41:07;;;;;;;11.47;6.03;;;28.20;78.70;;;;;;5097157;28;20216;-92
2022/07/23 06:43:32;;;;;;;12.20;6.20;;;28.30;78.50;;;;;;5097481;28;20178;-91
2022/07/23 06:45:58;;;;;;;6.83;5.20;;;28.40;78.20;;;;;;5097574;28;20745;-93
2022/07/23 06:48:24;;;;;;;6.30;5.27;;;28.40;78.20;;;;;;5098426;28;20176;-92
2022/07/23 06:50:52;;;;;;;11.43;6.53;;;28.50;78.00;;;;;;5098474;28;20176;-92
2022/07/23 06:53:18;;;;;;;11.77;6.63;;;28.60;78.00;;;;;;5097302;28;20596;-91
2022/07/23 06:55:43;;;;;;;9.67;6.20;;;28.70;78.30;;;;;;5097232;28;20434;-93
2022/07/23 06:58:09;;;;;;;7.57;5.00;;;28.80;78.40;;;;;;5098125;28;20426;-92
2022/07/23 07:00:36;;;;;;;7.90;5.80;;;28.80;79.00;;;;;;5099396;28;20175;-93
2022/07/23 07:03:02;;;;;;;8.53;5.43;;;28.90;79.30;;;;;;5100295;28;20479;-92
2022/07/23 07:05:27;;;;;;;7.60;5.30;;;29.00;78.60;;;;;;5096972;28;20421;-92
2022/07/23 07:07:56;;;;;;;12.70;5.60;;;29.10;78.20;;;;;;5097371;28;20237;-92
2022/07/23 07:10:22;;;;;;;8.10;5.00;;;29.20;78.00;;;;;;5097712;28;20186;-92
2022/07/23 07:12:48;;;;;;;10.07;5.37;;;29.30;77.80;;;;;;5097837;28;20434;-91
2022/07/23 07:15:13;;;;;;;8.40;5.13;;;29.40;77.60;;;;;;5097973;28;20175;-92
2022/07/23 07:17:39;;;;;;;4.90;4.40;;;29.50;77.30;;;;;;5098149;28;20204;-93
2022/07/23 07:20:06;;;;;;;8.50;4.40;;;29.60;75.50;;;;;;5096834;28;20194;-91
2022/07/23 07:22:31;;;;;;;9.90;4.80;;;29.80;73.90;;;;;;5097619;28;20226;-92
2022/07/23 07:24:57;;;;;;;7.53;4.77;;;29.90;75.00;;;;;;5096614;28;20422;-92
2022/07/23 07:30:08;;;;;;;7.50;4.30;;;30.10;74.90;;;;;;5107259;28;20448;-92
2022/07/23 07:32:34;;;;;;;6.57;4.50;;;30.20;74.70;;;;;;5120964;27;20446;-92
2022/07/23 07:34:59;;;;;;;4.50;4.10;;;30.30;75.00;;;;;;5118537;28;20924;-91
2022/07/23 07:37:25;;;;;;;6.83;4.20;;;30.50;74.80;;;;;;5116702;28;20299;-93
2022/07/23 07:39:51;;;;;;;8.70;4.23;;;30.60;74.50;;;;;;5117431;28;20233;-92
2022/07/23 07:42:16;;;;;;;8.17;5.30;;;30.70;73.90;;;;;;5117872;28;20225;-92
2022/07/23 07:44:42;;;;;;;4.83;4.13;;;30.80;72.80;;;;;;5111025;27;20190;-92
2022/07/23 07:47:08;;;;;;;8.27;4.93;;;30.90;73.20;;;;;;5119162;28;20278;-93
2022/07/23 07:49:34;;;;;;;9.23;4.10;;;31.10;70.90;;;;;;5116100;28;20178;-92
2022/07/23 07:52:00;;;;;;;6.37;4.23;;;31.20;71.20;;;;;;5096223;28;20199;-93
2022/07/23 07:54:25;;;;;;;6.87;4.10;;;31.30;70.30;;;;;;5096734;28;20429;-93
2022/07/23 07:56:51;;;;;;;6.70;4.30;;;31.40;70.30;;;;;;5116865;28;20730;-94
2022/07/23 07:59:17;;;;;;;8.43;4.20;;;31.50;70.40;;;;;;5117540;28;20168;-94
2022/07/23 08:01:42;;;;;;;9.13;4.90;;;31.60;70.10;;;;;;5116235;28;20696;-94
2022/07/23 08:04:08;;;;;;;7.03;5.07;;;31.60;70.00;;;;;;5116345;28;20288;-93
2022/07/23 08:06:34;;;;;;;8.53;4.90;;;31.80;70.00;;;;;;5116266;28;20200;-94
2022/07/23 08:08:59;;;;;;;5.97;4.27;;;31.90;69.90;;;;;;5116022;28;20315;-93
2022/07/23 08:11:25;;;;;;;4.07;3.67;;;31.90;68.10;;;;;;5115847;28;20222;-93
2022/07/23 08:13:51;;;;;;;5.03;3.50;;;32.00;68.10;;;;;;5118313;28;20175;-94
2022/07/23 08:16:16;;;;;;;5.80;4.23;;;32.10;67.30;;;;;;5115868;28;20230;-93
2022/07/23 08:18:42;;;;;;;5.13;4.57;;;32.20;66.40;;;;;;5115825;28;20195;-93
2022/07/23 08:21:08;;;;;;;6.60;4.73;;;32.30;66.70;;;;;;5115598;28;20238;-93
2022/07/23 08:23:34;;;;;;;8.60;4.00;;;32.40;66.80;;;;;;5115964;28;20180;-93
2022/07/23 08:26:00;;;;;;;7.70;4.60;;;32.60;66.10;;;;;;5115829;28;20218;-93
2022/07/23 08:28:26;;;;;;;6.00;4.00;;;32.70;65.50;;;;;;5101988;28;20409;-93
2022/07/23 08:30:52;;;;;;;5.10;3.83;;;32.80;65.50;;;;;;5116132;28;20435;-93
2022/07/23 08:33:19;;;;;;;8.17;4.10;;;32.90;64.70;;;;;;5115544;28;20799;-93
2022/07/23 08:35:49;;;;;;;4.77;3.73;;;33.00;65.00;;;;;;5116859;28;20180;-93
2022/07/23 08:38:17;;;;;;;7.17;4.50;;;33.10;65.30;;;;;;5114171;28;20960;-94
2022/07/23 08:40:49;;;;;;;5.53;3.53;;;33.20;64.10;;;;;;5113780;28;20415;-93
2022/07/23 08:43:18;;;;;;;4.37;3.93;;;33.30;63.00;;;;;;5115517;28;20853;-93
2022/07/23 08:45:46;;;;;;;4.83;4.30;;;33.40;64.80;;;;;;5112504;28;20519;-93
2022/07/23 08:48:15;;;;;;;4.77;3.80;;;33.50;64.30;;;;;;5114574;28;20428;-94
2022/07/23 08:50:47;;;;;;;8.47;3.57;;;33.60;63.80;;;;;;5113393;28;20412;-93
2022/07/23 08:53:14;;;;;;;7.13;4.57;;;33.70;63.80;;;;;;5113549;28;20432;-93
2022/07/23 08:55:39;;;;;;;5.03;3.60;;;33.80;64.20;;;;;;5114912;28;20423;-94
2022/07/23 08:58:06;;;;;;;6.27;4.80;;;33.90;64.80;;;;;;5114488;28;20442;-95
2022/07/23 09:00:32;;;;;;;8.10;4.00;;;33.90;65.00;;;;;;5112954;28;20187;-94
2022/07/23 09:02:58;;;;;;;4.77;4.37;;;34.00;64.50;;;;;;5114091;28;20464;-94
2022/07/23 09:05:24;;;;;;;5.07;4.57;;;34.10;64.90;;;;;;5113780;28;20220;-93
2022/07/23 09:08:12;;;;;;;5.20;4.57;;;34.20;64.00;;;;;;5115324;28;20283;-94
2022/07/23 09:10:48;;;;;;;4.90;4.30;;;34.30;64.80;;;;;;5116083;28;20435;-93
2022/07/23 09:13:26;;;;;;;9.17;4.23;;;34.30;65.20;;;;;;5119412;28;20494;-92
2022/07/23 09:15:54;;;;;;;5.47;4.50;;;34.40;64.00;;;;;;5117975;28;20412;-93
2022/07/23 09:18:31;;;;;;;5.33;4.67;;;34.50;64.00;;;;;;5114928;28;20972;-93
2022/07/23 09:21:15;;;;;;;5.60;4.53;;;34.70;64.50;;;;;;5114755;28;20533;-93
2022/07/23 09:23:57;;;;;;;6.53;4.60;;;34.80;64.20;;;;;;5114778;28;20416;-93
2022/07/23 09:26:26;;;;;;;7.57;4.30;;;34.80;64.80;;;;;;5114814;28;20538;-93
2022/07/23 09:28:58;;;;;;;4.60;4.13;;;34.80;65.00;;;;;;5115010;28;20420;-93
2022/07/23 09:31:25;;;;;;;5.83;3.87;;;34.80;62.60;;;;;;5114475;28;20448;-94
2022/07/23 09:33:51;;;;;;;8.30;3.57;;;34.80;63.30;;;;;;5115708;28;20908;-94
2022/07/23 09:36:28;;;;;;;3.40;3.20;;;34.90;64.10;;;;;;5114486;28;20816;-93
2022/07/23 09:38:54;;;;;;;4.17;3.40;;;34.90;62.60;;;;;;5115725;28;20404;-94
2022/07/23 09:41:20;;;;;;;4.33;3.93;;;35.00;61.10;;;;;;5114618;28;20471;-94
2022/07/23 09:43:46;;;;;;;4.87;3.90;;;35.10;59.80;;;;;;5114799;28;20875;-93
2022/07/23 09:46:25;;;;;;;5.40;3.37;;;35.20;62.20;;;;;;5114301;28;20436;-93
2022/07/23 09:48:52;;;;;;;4.20;3.90;;;35.20;61.10;;;;;;5114228;28;20186;-93
2022/07/23 09:51:40;;;;;;;5.30;3.80;;;35.30;61.10;;;;;;5114196;28;20976;-93
2022/07/23 09:54:05;;;;;;;4.60;4.13;;;35.30;61.30;;;;;;5115307;28;20416;-94
2022/07/23 09:56:32;;;;;;;4.10;3.70;;;35.40;59.70;;;;;;5115504;28;20464;-94
2022/07/23 09:59:07;;;;;;;4.27;3.87;;;35.40;60.40;;;;;;5114837;28;20183;-93
2022/07/23 10:01:33;;;;;;;4.23;3.83;;;35.40;62.10;;;;;;5114272;28;20463;-94
2022/07/23 10:04:00;;;;;;;7.53;5.00;;;35.40;63.00;;;;;;5114429;28;20401;-94
2022/07/23 10:06:27;;;;;;;7.33;6.17;;;35.40;60.70;;;;;;5116804;28;20503;-94
2022/07/23 10:08:55;;;;;;;6.87;5.43;;;35.50;59.90;;;;;;5118555;28;20470;-93
2022/07/23 10:11:21;;;;;;;6.30;3.73;;;35.60;61.20;;;;;;5117276;28;20444;-94
2022/07/23 10:13:57;;;;;;;5.13;3.83;;;35.60;60.60;;;;;;5115198;28;20412;-93
2022/07/23 10:16:23;;;;;;;4.83;3.50;;;35.70;59.60;;;;;;5114566;28;20290;-93
2022/07/23 10:18:49;;;;;;;4.97;4.20;;;35.80;59.40;;;;;;5114008;28;20436;-93
2022/07/23 10:21:25;;;;;;;8.10;5.50;;;35.90;60.50;;;;;;5113945;28;20210;-93
2022/07/23 10:24:15;;;;;;;4.30;3.93;;;36.00;59.20;;;;;;5114054;28;20416;-94
2022/07/23 10:27:02;;;;;;;4.40;4.00;;;36.00;59.00;;;;;;5114122;28;20452;-94
2022/07/23 10:30:07;;;;;;;4.33;3.83;;;36.10;59.00;;;;;;5114816;28;20419;-93
2022/07/23 10:32:41;;;;;;;6.83;3.73;;;36.10;58.70;;;;;;5114852;28;20945;-93
2022/07/23 10:35:11;;;;;;;5.77;4.27;;;36.20;57.60;;;;;;5113740;28;20427;-94
2022/07/23 10:37:48;;;;;;;5.37;4.20;;;36.20;60.00;;;;;;5113992;28;20464;-93
2022/07/23 10:40:23;;;;;;;5.80;4.13;;;36.30;59.20;;;;;;5113843;28;20425;-94
2022/07/23 10:42:55;;;;;;;4.80;3.70;;;36.30;58.60;;;;;;5114254;28;20999;-94
2022/07/23 10:45:31;;;;;;;5.93;3.73;;;36.40;58.00;;;;;;5114789;28;20827;-93
2022/07/23 10:48:23;;;;;;;3.70;3.40;;;36.30;59.40;;;;;;5113583;28;20443;-93
2022/07/23 10:51:13;;;;;;;4.40;4.00;;;36.20;60.70;;;;;;5114906;28;20427;-93
2022/07/23 10:53:51;;;;;;;8.27;4.37;;;36.20;59.80;;;;;;5113680;28;20995;-93
2022/07/23 10:56:55;;;;;;;5.77;3.50;;;36.30;58.10;;;;;;5117976;28;20444;-93
2022/07/23 10:59:22;;;;;;;5.40;4.10;;;36.40;57.90;;;;;;5100305;28;20414;-94
2022/07/23 11:01:48;;;;;;;4.17;3.87;;;36.50;57.10;;;;;;5114921;28;20478;-94
2022/07/23 11:04:13;;;;;;;5.30;3.40;;;36.50;57.80;;;;;;5113688;28;20424;-94
2022/07/23 11:06:48;;;;;;;4.50;4.10;;;36.50;59.30;;;;;;5114535;28;20459;-94
2022/07/23 11:09:27;;;;;;;5.23;3.83;;;36.50;59.80;;;;;;5118368;28;20215;-93
2022/07/23 11:12:20;;;;;;;5.50;4.50;;;36.40;57.50;;;;;;5118246;28;20483;-94
2022/07/23 11:15:09;;;;;;;6.13;4.30;;;36.50;56.60;;;;;;5117197;28;20459;-94
2022/07/23 11:17:59;;;;;;;4.40;4.00;;;36.70;57.50;;;;;;5117359;28;20448;-94
2022/07/23 11:20:25;;;;;;;6.53;4.60;;;36.70;55.70;;;;;;5117334;28;20424;-93
2022/07/23 11:22:55;;;;;;;5.70;3.90;;;36.90;54.90;;;;;;5117144;28;20478;-94
2022/07/23 11:25:29;;;;;;;7.37;4.60;;;36.90;55.10;;;;;;5118325;28;20889;-95
2022/07/23 11:28:07;;;;;;;7.43;4.20;;;37.00;55.30;;;;;;5118027;28;20431;-94
2022/07/23 11:30:32;;;;;;;4.60;3.10;;;37.10;55.80;;;;;;5117143;28;20412;-94
2022/07/23 11:33:07;;;;;;;3.93;3.53;;;37.10;56.00;;;;;;5117988;28;20443;-92
2022/07/23 11:35:34;;;;;;;6.47;4.47;;;37.10;55.20;;;;;;5116736;28;20174;-93
2022/07/23 11:38:06;;;;;;;4.03;3.63;;;37.10;54.60;;;;;;5119620;28;20432;-92
2022/07/23 11:40:32;;;;;;;4.87;3.80;;;37.10;54.20;;;;;;5119962;28;20420;-94
2022/07/23 11:43:04;;;;;;;4.37;3.93;;;37.10;55.80;;;;;;5117531;28;20474;-92
2022/07/23 11:45:31;;;;;;;4.37;3.63;;;37.10;55.20;;;;;;5116586;28;20502;-94
2022/07/23 11:47:57;;;;;;;4.40;3.73;;;37.00;57.70;;;;;;5116595;28;20443;-93
2022/07/23 11:50:25;;;;;;;6.93;4.50;;;37.10;54.50;;;;;;5116508;28;20416;-93
2022/07/23 11:52:51;;;;;;;5.60;4.17;;;37.10;54.80;;;;;;5116434;28;20206;-93
2022/07/23 11:55:17;;;;;;;6.97;4.50;;;37.10;56.00;;;;;;5117784;28;20400;-93
2022/07/23 11:57:43;;;;;;;4.10;3.80;;;37.10;54.00;;;;;;5116507;28;20428;-94
2022/07/23 12:00:13;;;;;;;3.97;3.67;;;37.20;53.90;;;;;;5116556;28;20172;-95
2022/07/23 12:02:41;;;;;;;4.13;3.40;;;37.30;53.50;;;;;;5116089;28;20476;-94
2022/07/23 12:05:09;;;;;;;5.57;3.70;;;37.20;56.00;;;;;;5117317;28;20878;-93
2022/07/23 12:07:36;;;;;;;3.63;3.33;;;37.20;55.90;;;;;;5115945;28;21003;-94
2022/07/23 12:10:10;;;;;;;6.07;3.70;;;37.20;55.20;;;;;;5116991;28;20416;-93
2022/07/23 12:12:43;;;;;;;4.77;3.83;;;37.30;54.80;;;;;;5116205;28;20805;-94
2022/07/23 12:15:10;;;;;;;5.03;3.87;;;37.40;54.40;;;;;;5118026;27;20431;-94
2022/07/23 12:17:38;;;;;;;4.03;3.57;;;37.40;54.70;;;;;;5116111;28;20505;-93
2022/07/23 12:20:09;;;;;;;5.27;3.83;;;37.40;55.90;;;;;;5117915;28;20944;-92
2022/07/23 12:22:44;;;;;;;3.97;3.60;;;37.50;54.70;;;;;;5118080;28;20478;-94
2022/07/23 12:25:11;;;;;;;7.17;3.90;;;37.50;54.70;;;;;;5117981;28;20419;-94
2022/07/23 12:27:37;;;;;;;4.47;4.07;;;37.50;53.00;;;;;;5115665;28;20526;-92
2022/07/23 12:30:25;;;;;;;6.10;4.50;;;37.60;52.40;;;;;;5116889;28;20881;-94
2022/07/23 12:32:53;;;;;;;4.53;4.13;;;37.60;53.10;;;;;;5116719;28;20523;-94
2022/07/23 12:35:21;;;;;;;5.20;3.60;;;37.60;54.30;;;;;;5116830;28;20408;-93
2022/07/23 12:37:49;;;;;;;8.17;4.37;;;37.60;54.40;;;;;;5115679;28;20439;-93
2022/07/23 12:40:29;;;;;;;4.30;3.83;;;37.60;53.60;;;;;;5116433;28;20405;-94
2022/07/23 12:42:59;;;;;;;6.33;3.37;;;37.60;53.40;;;;;;5117652;28;20876;-94
2022/07/23 12:45:27;;;;;;;3.87;3.20;;;37.60;53.20;;;;;;5117244;28;20392;-93
2022/07/23 12:47:59;;;;;;;4.30;3.90;;;37.70;52.20;;;;;;5116636;27;20460;-93
2022/07/23 12:50:49;;;;;;;3.90;3.27;;;37.80;52.90;;;;;;5116714;28;20404;-93
2022/07/23 12:53:18;;;;;;;4.97;3.60;;;37.80;54.30;;;;;;5116034;28;20440;-94